Time,TemperatureF,DewpointF,PressureIn,WindDirection,WindDirectionDegrees,WindSpeedMPH,WindSpeedGustMPH,Humidity,HourlyPrecipIn,Conditions,Clouds,dailyrainin,SoftwareType,DateUTC
2013-02-02 00:02:00,26.8,20.6,30.16,WSW,247,3.0,4.6,77,0.00,OVC,SKC,0.00,WeatherDisplay:10.37,2013-02-02 06:02:00,
2013-02-02 00:07:00,26.7,20.5,30.16,West,266,3.1,4.6,77,0.00,OVC,SKC,0.00,WeatherDisplay:10.37,2013-02-02 06:07:00,
2013-02-02 00:12:00,26.6,20.7,30.16,West,260,3.0,4.6,78,0.00,OVC,SKC,0.00,WeatherDisplay:10.37,2013-02-02 06:12:00,
2013-02-02 00:17:00,26.6,20.7,30.16,WNW,293,3.0,5.8,78,0.00,OVC,SKC,0.00,WeatherDisplay:10.37,2013-02-02 06:17:00,
2013-02-02 00:22:00,26.5,20.9,30.16,West,264,0.8,3.5,79,0.00,BKN,SKC,0.00,WeatherDisplay:10.37,2013-02-02 06:22:00,
2013-02-02 00:27:00,26.5,20.9,30.16,WSW,257,0.3,3.5,79,0.00,BKN,SKC,0.00,WeatherDisplay:10.37,2013-02-02 06:27:00,
2013-02-02 00:32:00,26.5,21.2,30.16,WNW,282,2.5,3.5,80,0.00,BKN,SKC,0.00,WeatherDisplay:10.37,2013-02-02 06:32:00,
2013-02-02 00:37:00,26.5,21.2,30.16,West,278,0.7,1.1,80,0.00,BKN,SKC,0.00,WeatherDisplay:10.37,2013-02-02 06:37:00,
2013-02-02 00:42:00,26.6,21.3,30.16,West,268,1.4,2.0,80,0.00,OVC,SKC,0.00,WeatherDisplay:10.37,2013-02-02 06:42:00,
2013-02-02 00:47:00,26.7,21.7,30.16,West,259,2.9,3.5,81,0.00,OVC,SKC,0.00,WeatherDisplay:10.37,2013-02-02 06:47:00,
2013-02-02 00:52:00,26.8,21.8,30.16,West,269,1.6,3.5,81,0.00,OVC,SKC,0.00,WeatherDisplay:10.37,2013-02-02 06:52:00,
2013-02-02 00:57:00,26.8,21.8,30.16,West,278,2.7,5.8,81,0.00,OVC,SKC,0.00,WeatherDisplay:10.37,2013-02-02 06:57:00,
2013-02-02 01:02:00,26.9,22.1,30.16,West,268,0.4,1.0,82,0.00,OVC,SKC,0.00,WeatherDisplay:10.37,2013-02-02 07:02:00,
2013-02-02 01:07:00,26.8,22.0,30.16,West,264,2.4,4.0,82,0.00,OVC,SKC,0.00,WeatherDisplay:10.37,2013-02-02 07:07:00,
2013-02-02 01:12:00,26.8,22.0,30.16,West,277,0.6,2.3,82,0.00,OVC,SKC,0.00,WeatherDisplay:10.37,2013-02-02 07:12:00,
2013-02-02 01:17:00,26.7,21.9,30.17,West,259,0.8,3.5,82,0.00,OVC,SKC,0.00,WeatherDisplay:10.37,2013-02-02 07:17:00,
2013-02-02 01:22:00,26.6,22.1,30.16,WNW,288,0.3,1.1,83,0.00,BKN,SKC,0.00,WeatherDisplay:10.37,2013-02-02 07:22:00,
2013-02-02 01:27:00,26.6,22.1,30.17,WNW,285,1.9,2.3,83,0.00,BKN,SKC,0.00,WeatherDisplay:10.37,2013-02-02 07:27:00,
2013-02-02 01:32:00,26.6,22.4,30.17,West,276,0.9,2.3,84,0.00,BKN,SKC,0.00,WeatherDisplay:10.37,2013-02-02 07:32:00,
2013-02-02 01:37:00,26.6,22.4,30.17,WSW,243,2.6,4.0,84,0.00,BKN,SKC,0.00,WeatherDisplay:10.37,2013-02-02 07:37:00,
2013-02-02 01:42:00,26.7,22.5,30.17,West,261,1.3,3.5,84,0.00,OVC,SKC,0.00,WeatherDisplay:10.37,2013-02-02 07:42:00,
2013-02-02 01:47:00,26.6,22.4,30.17,WNW,294,1.2,3.5,84,0.00,OVC,SKC,0.00,WeatherDisplay:10.37,2013-02-02 07:47:00,
2013-02-02 01:52:00,26.5,22.6,30.17,WNW,297,2.3,4.0,85,0.00,OVC,SKC,0.00,WeatherDisplay:10.37,2013-02-02 07:52:00,
2013-02-02 01:57:00,26.4,22.5,30.16,West,277,1.7,3.5,85,0.00,OVC,SKC,0.00,WeatherDisplay:10.37,2013-02-02 07:57:00,
2013-02-02 02:05:00,26.3,22.4,30.16,WNW,287,0.9,2.3,85,0.00,OVC,SKC,0.00,WeatherDisplay:10.37,2013-02-02 08:05:00,
2013-02-02 02:10:00,26.3,22.7,30.17,NW,325,1.4,3.5,86,0.00,OVC,SKC,0.00,WeatherDisplay:10.37,2013-02-02 08:10:00,
2013-02-02 02:15:00,26.2,22.6,30.17,NNW,330,0.9,2.3,86,0.00,OVC,SKC,0.00,WeatherDisplay:10.37,2013-02-02 08:15:00,
2013-02-02 02:20:00,26.0,22.4,30.17,WNW,288,1.5,2.3,86,0.00,OVC,SKC,0.00,WeatherDisplay:10.37,2013-02-02 08:20:00,
2013-02-02 02:25:00,26.1,22.5,30.17,NW,312,1.6,3.0,86,0.00,OVC,SKC,0.00,WeatherDisplay:10.37,2013-02-02 08:25:00,
2013-02-02 02:30:00,26.2,22.6,30.18,West,263,2.6,4.0,86,0.00,OVC,SKC,0.00,WeatherDisplay:10.37,2013-02-02 08:30:00,
2013-02-02 02:36:00,26.5,22.9,30.19,NW,308,2.4,4.6,86,0.00,OVC,SKC,0.00,WeatherDisplay:10.37,2013-02-02 08:36:00,
2013-02-02 02:41:00,26.7,22.8,30.18,NW,309,3.1,8.1,85,0.00,OVC,SKC,0.00,WeatherDisplay:10.37,2013-02-02 08:41:00,
2013-02-02 02:46:00,26.8,22.9,30.19,NW,309,3.5,4.6,85,0.00,OVC,SKC,0.00,WeatherDisplay:10.37,2013-02-02 08:46:00,
2013-02-02 02:51:00,27.0,22.8,30.19,NW,304,3.4,4.6,84,0.00,OVC,SKC,0.00,WeatherDisplay:10.37,2013-02-02 08:51:00,
2013-02-02 02:56:00,27.0,22.8,30.19,NW,319,2.2,3.5,84,0.00,OVC,SKC,0.00,WeatherDisplay:10.37,2013-02-02 08:56:00,
2013-02-02 03:01:00,27.1,22.6,30.20,NW,316,4.0,5.8,83,0.00,OVC,SKC,0.00,WeatherDisplay:10.37,2013-02-02 09:01:00,
2013-02-02 03:06:00,27.1,22.6,30.20,NW,321,3.4,4.6,83,0.00,OVC,SKC,0.00,WeatherDisplay:10.37,2013-02-02 09:06:00,
2013-02-02 03:11:00,27.2,22.7,30.20,NNW,338,3.1,6.9,83,0.00,OVC,SKC,0.00,WeatherDisplay:10.37,2013-02-02 09:11:00,
2013-02-02 03:16:00,27.3,22.8,30.19,NW,325,3.7,4.6,83,0.00,OVC,SKC,0.00,WeatherDisplay:10.37,2013-02-02 09:16:00,
2013-02-02 03:21:00,27.3,22.8,30.19,NNW,332,2.0,3.5,83,0.00,OVC,SKC,0.00,WeatherDisplay:10.37,2013-02-02 09:21:00,
2013-02-02 03:26:00,27.4,22.6,30.20,NW,326,4.2,5.8,82,0.00,OVC,SKC,0.00,WeatherDisplay:10.37,2013-02-02 09:26:00,
2013-02-02 03:31:00,27.5,22.7,30.20,NW,323,2.4,4.6,82,0.00,OVC,SKC,0.00,WeatherDisplay:10.37,2013-02-02 09:31:00,
2013-02-02 03:36:00,27.4,22.6,30.20,NW,304,1.9,3.5,82,0.00,OVC,SKC,0.00,WeatherDisplay:10.37,2013-02-02 09:36:00,
2013-02-02 03:41:00,27.4,22.6,30.20,NW,317,1.5,2.3,82,0.00,OVC,SKC,0.00,WeatherDisplay:10.37,2013-02-02 09:41:00,
2013-02-02 03:46:00,27.3,22.5,30.20,NNW,345,1.6,3.0,82,0.00,OVC,SKC,0.00,WeatherDisplay:10.37,2013-02-02 09:46:00,
2013-02-02 03:51:00,27.3,22.5,30.20,NW,320,1.8,3.0,82,0.00,OVC,SKC,0.00,WeatherDisplay:10.37,2013-02-02 09:51:00,
2013-02-02 03:56:00,27.2,22.4,30.19,NW,315,1.6,2.3,82,0.00,OVC,SKC,0.00,WeatherDisplay:10.37,2013-02-02 09:56:00,
2013-02-02 04:01:00,27.1,22.3,30.19,NNW,338,2.1,3.5,82,0.00,OVC,SKC,0.00,WeatherDisplay:10.37,2013-02-02 10:01:00,
2013-02-02 04:06:00,27.2,22.4,30.19,NNW,328,3.6,4.6,82,0.00,OVC,SKC,0.00,WeatherDisplay:10.37,2013-02-02 10:06:00,
2013-02-02 04:11:00,27.2,22.4,30.20,NW,312,2.2,3.5,82,0.00,OVC,SKC,0.00,WeatherDisplay:10.37,2013-02-02 10:11:00,
2013-02-02 04:16:00,27.1,22.3,30.20,NW,307,2.0,4.0,82,0.00,OVC,SKC,0.00,WeatherDisplay:10.37,2013-02-02 10:16:00,
2013-02-02 04:21:00,27.1,22.3,30.20,NNW,327,2.4,3.5,82,0.00,OVC,SKC,0.00,WeatherDisplay:10.37,2013-02-02 10:21:00,
2013-02-02 04:26:00,27.1,22.3,30.20,NNW,327,3.2,4.6,82,0.00,OVC,SKC,0.00,WeatherDisplay:10.37,2013-02-02 10:26:00,
2013-02-02 04:31:00,27.0,22.2,30.20,NNW,335,4.0,6.0,82,0.00,OVC,SKC,0.00,WeatherDisplay:10.37,2013-02-02 10:31:00,
2013-02-02 04:36:00,27.0,22.2,30.20,NNW,331,3.5,5.0,82,0.00,OVC,SKC,0.00,WeatherDisplay:10.37,2013-02-02 10:36:00,
2013-02-02 04:41:00,27.0,22.2,30.19,NW,326,2.1,3.5,82,0.00,OVC,SKC,0.00,WeatherDisplay:10.37,2013-02-02 10:41:00,
2013-02-02 04:46:00,26.9,22.1,30.20,NW,305,3.3,4.6,82,0.00,OVC,SKC,0.00,WeatherDisplay:10.37,2013-02-02 10:46:00,
2013-02-02 04:51:00,26.9,21.8,30.20,NW,314,1.4,3.5,81,0.00,OVC,SKC,0.00,WeatherDisplay:10.37,2013-02-02 10:51:00,
2013-02-02 04:56:00,26.8,21.8,30.20,NNW,345,3.1,6.0,81,0.00,OVC,SKC,0.00,WeatherDisplay:10.37,2013-02-02 10:56:00,
2013-02-02 05:01:00,26.8,21.8,30.20,NW,323,4.3,5.0,81,0.00,OVC,SKC,0.00,WeatherDisplay:10.37,2013-02-02 11:01:00,
2013-02-02 05:06:00,26.7,21.7,30.20,NW,314,4.2,5.8,81,0.00,OVC,SKC,0.00,WeatherDisplay:10.37,2013-02-02 11:06:00,
2013-02-02 05:11:00,26.7,21.7,30.20,NW,306,4.1,6.9,81,0.00,OVC,SKC,0.00,WeatherDisplay:10.37,2013-02-02 11:11:00,
2013-02-02 05:16:00,26.6,21.6,30.20,NW,325,3.3,7.0,81,0.00,OVC,SKC,0.00,WeatherDisplay:10.37,2013-02-02 11:16:00,
2013-02-02 05:21:00,26.6,21.6,30.20,North,349,2.7,5.8,81,0.00,OVC,SKC,0.00,WeatherDisplay:10.37,2013-02-02 11:21:00,
2013-02-02 05:26:00,26.6,21.6,30.21,WNW,293,4.6,5.8,81,0.00,OVC,SKC,0.00,WeatherDisplay:10.37,2013-02-02 11:26:00,
2013-02-02 05:31:00,26.5,21.2,30.21,North,5,3.0,8.0,80,0.00,OVC,SKC,0.00,WeatherDisplay:10.37,2013-02-02 11:31:00,
2013-02-02 05:36:00,26.5,21.2,30.22,NNW,327,5.8,6.9,80,0.00,OVC,SKC,0.00,WeatherDisplay:10.37,2013-02-02 11:36:00,
2013-02-02 05:41:00,26.5,21.2,30.22,NW,323,4.6,5.8,80,0.00,OVC,SKC,0.00,WeatherDisplay:10.37,2013-02-02 11:41:00,
2013-02-02 05:46:00,26.4,21.1,30.22,NNW,332,4.4,8.1,80,0.00,OVC,SKC,0.00,WeatherDisplay:10.37,2013-02-02 11:46:00,
2013-02-02 05:51:00,26.3,21.0,30.22,NW,314,4.6,9.2,80,0.00,OVC,SKC,0.00,WeatherDisplay:10.37,2013-02-02 11:51:00,
2013-02-02 05:56:00,26.3,21.0,30.22,NNW,341,2.6,4.6,80,0.00,OVC,SKC,0.00,WeatherDisplay:10.37,2013-02-02 11:56:00,
2013-02-02 06:01:00,26.2,20.9,30.22,North,354,3.9,6.9,80,0.00,OVC,SKC,0.00,WeatherDisplay:10.37,2013-02-02 12:01:00,
2013-02-02 06:06:00,26.2,20.9,30.22,NW,317,3.4,6.9,80,0.00,OVC,SKC,0.00,WeatherDisplay:10.37,2013-02-02 12:06:00,
2013-02-02 06:11:00,26.1,20.8,30.22,NNW,333,3.7,5.0,80,0.00,OVC,SKC,0.00,WeatherDisplay:10.37,2013-02-02 12:11:00,
2013-02-02 06:16:00,26.0,21.0,30.23,North,5,3.1,3.5,81,0.00,OVC,SKC,0.00,WeatherDisplay:10.37,2013-02-02 12:16:00,
2013-02-02 06:21:00,25.9,21.2,30.23,NW,312,2.9,3.5,82,0.00,OVC,SKC,0.00,WeatherDisplay:10.37,2013-02-02 12:21:00,
2013-02-02 06:26:00,25.7,21.3,30.23,NW,325,5.2,5.2,83,0.00,OVC,SKC,0.00,WeatherDisplay:10.37,2013-02-02 12:26:00,
2013-02-02 06:31:00,25.5,21.3,30.23,NE,38,1.8,3.0,84,0.00,OVC,SKC,0.00,WeatherDisplay:10.37,2013-02-02 12:31:00,
2013-02-02 06:36:00,25.3,21.4,30.22,NW,315,3.6,6.0,85,0.00,OVC,SKC,0.00,WeatherDisplay:10.37,2013-02-02 12:36:00,
2013-02-02 06:41:00,25.1,21.5,30.23,North,356,3.0,4.6,86,0.00,OVC,SKC,0.00,WeatherDisplay:10.37,2013-02-02 12:41:00,
2013-02-02 06:46:00,25.1,21.8,30.23,NW,314,1.8,3.5,87,0.00,OVC,SKC,0.00,WeatherDisplay:10.37,2013-02-02 12:46:00,
2013-02-02 06:51:00,25.1,21.5,30.23,NW,324,2.6,4.6,86,0.00,OVC,SKC,0.00,WeatherDisplay:10.37,2013-02-02 12:51:00,
2013-02-02 06:56:00,25.0,21.4,30.23,NW,322,4.1,5.8,86,0.00,OVC,SKC,0.00,WeatherDisplay:10.37,2013-02-02 12:56:00,
2013-02-02 07:01:00,25.1,21.2,30.24,NNW,335,3.4,5.0,85,0.00,OVC,SKC,0.00,WeatherDisplay:10.37,2013-02-02 13:01:00,
2013-02-02 07:06:00,25.1,20.9,30.24,NW,309,3.7,4.6,84,0.00,OVC,SKC,0.00,WeatherDisplay:10.37,2013-02-02 13:06:00,
2013-02-02 07:11:00,25.1,20.7,30.24,NW,325,2.9,3.5,83,0.00,OVC,SKC,0.00,WeatherDisplay:10.37,2013-02-02 13:11:00,
2013-02-02 07:16:00,25.1,20.7,30.24,NNW,336,2.3,3.5,83,0.00,OVC,SKC,0.00,WeatherDisplay:10.37,2013-02-02 13:16:00,
2013-02-02 07:21:00,25.1,20.7,30.24,NW,306,2.3,3.5,83,0.00,OVC,SKC,0.00,WeatherDisplay:10.37,2013-02-02 13:21:00,
2013-02-02 07:26:00,25.1,20.7,30.24,North,1,3.7,7.0,83,0.00,OVC,SKC,0.00,WeatherDisplay:10.37,2013-02-02 13:26:00,
2013-02-02 07:31:00,25.0,20.0,30.25,NNW,330,4.3,5.8,81,0.00,OVC,SKC,0.00,WeatherDisplay:10.37,2013-02-02 13:31:00,
2013-02-02 07:36:00,24.9,19.9,30.24,NNW,336,4.6,6.9,81,0.00,OVC,SKC,0.00,WeatherDisplay:10.37,2013-02-02 13:36:00,
2013-02-02 07:41:00,24.8,19.8,30.24,NW,314,3.8,5.8,81,0.00,OVC,SKC,0.00,WeatherDisplay:10.37,2013-02-02 13:41:00,
2013-02-02 07:46:00,24.8,19.8,30.25,NW,325,3.1,4.6,81,0.00,OVC,SKC,0.00,WeatherDisplay:10.37,2013-02-02 13:46:00,
2013-02-02 07:51:00,24.8,20.1,30.25,NW,306,1.8,4.6,82,0.00,OVC,SKC,0.00,WeatherDisplay:10.37,2013-02-02 13:51:00,
2013-02-02 07:56:00,24.7,20.0,30.25,NNW,343,4.1,4.6,82,0.00,OVC,SKC,0.00,WeatherDisplay:10.37,2013-02-02 13:56:00,
2013-02-02 08:01:00,24.6,19.9,30.25,NNW,336,2.1,3.5,82,0.00,OVC,SKC,0.00,WeatherDisplay:10.37,2013-02-02 14:01:00,
2013-02-02 08:06:00,24.4,20.0,30.25,North,4,4.0,4.6,83,0.00,OVC,SKC,0.00,WeatherDisplay:10.37,2013-02-02 14:06:00,
2013-02-02 08:11:00,24.3,19.9,30.25,NNE,27,2.9,4.0,83,0.00,OVC,SKC,0.00,WeatherDisplay:10.37,2013-02-02 14:11:00,
2013-02-02 08:17:00,24.1,19.7,30.25,NNW,341,2.7,3.5,83,0.00,OVC,SKC,0.00,WeatherDisplay:10.37,2013-02-02 14:17:00,
2013-02-02 08:22:00,24.1,19.7,30.25,NNW,347,3.2,3.5,83,0.00,OVC,SKC,0.00,WeatherDisplay:10.37,2013-02-02 14:22:00,
2013-02-02 08:27:00,24.0,19.6,30.25,NNE,18,3.3,7.0,83,0.00,OVC,SKC,0.00,WeatherDisplay:10.37,2013-02-02 14:27:00,
2013-02-02 08:32:00,23.9,19.5,30.25,NNE,13,6.3,10.4,83,0.00,OVC,SKC,0.00,WeatherDisplay:10.37,2013-02-02 14:32:00,
2013-02-02 08:37:00,23.8,19.1,30.25,ENE,62,2.9,6.9,82,0.00,OVC,SKC,0.00,WeatherDisplay:10.37,2013-02-02 14:37:00,
2013-02-02 08:42:00,23.8,19.1,30.25,North,355,4.3,8.1,82,0.00,OVC,SKC,0.00,WeatherDisplay:10.37,2013-02-02 14:42:00,
2013-02-02 08:47:00,23.7,18.7,30.25,NNE,25,3.1,6.0,81,0.00,OVC,SKC,0.00,WeatherDisplay:10.37,2013-02-02 14:47:00,
2013-02-02 08:52:00,23.7,18.7,30.26,NNW,338,2.3,5.8,81,0.00,OVC,SKC,0.00,WeatherDisplay:10.37,2013-02-02 14:52:00,
2013-02-02 08:57:00,23.7,18.4,30.26,NNW,328,3.2,4.6,80,0.00,OVC,SKC,0.00,WeatherDisplay:10.37,2013-02-02 14:57:00,
2013-02-02 09:02:00,23.7,18.4,30.26,North,11,5.4,5.8,80,0.00,OVC,SKC,0.00,WeatherDisplay:10.37,2013-02-02 15:02:00,
2013-02-02 09:07:00,23.7,18.1,30.26,NNW,340,4.8,5.8,79,0.00,OVC,SKC,0.00,WeatherDisplay:10.37,2013-02-02 15:07:00,
2013-02-02 09:12:00,23.8,18.2,30.26,NNW,342,3.0,5.0,79,0.00,OVC,SKC,0.00,WeatherDisplay:10.37,2013-02-02 15:12:00,
2013-02-02 09:17:00,23.8,18.2,30.26,North,4,4.3,6.9,79,0.00,OVC,SKC,0.00,WeatherDisplay:10.37,2013-02-02 15:17:00,
2013-02-02 09:22:00,23.7,18.1,30.26,NW,323,4.6,8.1,79,0.00,OVC,SKC,0.00,WeatherDisplay:10.37,2013-02-02 15:22:00,
2013-02-02 09:27:00,23.7,18.1,30.26,NNW,341,4.2,6.9,79,0.00,OVC,SKC,0.00,WeatherDisplay:10.37,2013-02-02 15:27:00,
2013-02-02 09:32:00,23.8,18.2,30.26,NNE,17,2.7,3.5,79,0.00,OVC,SKC,0.00,WeatherDisplay:10.37,2013-02-02 15:32:00,
2013-02-02 09:37:00,23.9,18.3,30.26,North,349,3.1,4.6,79,0.00,OVC,SKC,0.00,WeatherDisplay:10.37,2013-02-02 15:37:00,
2013-02-02 09:42:00,23.9,18.0,30.25,NNE,15,5.0,6.9,78,0.00,OVC,SKC,0.00,WeatherDisplay:10.37,2013-02-02 15:42:00,
2013-02-02 09:47:00,23.8,17.9,30.26,North,3,3.3,5.8,78,0.00,OVC,SKC,0.00,WeatherDisplay:10.37,2013-02-02 15:47:00,
2013-02-02 09:52:00,23.9,18.3,30.26,NE,46,3.6,6.0,79,0.00,OVC,SKC,0.00,WeatherDisplay:10.37,2013-02-02 15:52:00,
2013-02-02 09:57:00,23.9,18.0,30.25,North,8,5.5,6.9,78,0.00,OVC,SKC,0.00,WeatherDisplay:10.37,2013-02-02 15:57:00,
2013-02-02 10:02:00,23.9,18.0,30.26,NNE,25,4.2,6.0,78,0.00,OVC,SKC,0.00,WeatherDisplay:10.37,2013-02-02 16:02:00,
2013-02-02 10:07:00,24.0,18.1,30.26,NW,315,3.5,4.0,78,0.00,OVC,SKC,0.00,WeatherDisplay:10.37,2013-02-02 16:07:00,
2013-02-02 10:12:00,24.2,18.3,30.26,North,352,2.6,4.6,78,0.00,OVC,SKC,0.00,WeatherDisplay:10.37,2013-02-02 16:12:00,
2013-02-02 10:17:00,24.6,18.7,30.25,NNE,13,2.9,3.5,78,0.00,OVC,SKC,0.00,WeatherDisplay:10.37,2013-02-02 16:17:00,
2013-02-02 10:22:00,24.6,18.4,30.26,North,349,3.0,5.0,77,0.00,OVC,SKC,0.00,WeatherDisplay:10.37,2013-02-02 16:22:00,
2013-02-02 10:27:00,24.4,17.9,30.26,NNW,327,4.4,6.9,76,0.00,OVC,SKC,0.00,WeatherDisplay:10.37,2013-02-02 16:27:00,
2013-02-02 10:32:00,24.6,18.4,30.26,NNW,347,2.8,5.8,77,0.00,OVC,SKC,0.00,WeatherDisplay:10.37,2013-02-02 16:32:00,
2013-02-02 10:37:00,24.8,18.6,30.25,North,351,1.8,3.5,77,0.00,OVC,SKC,0.00,WeatherDisplay:10.37,2013-02-02 16:37:00,
2013-02-02 10:42:00,24.9,18.4,30.26,NNE,14,3.6,4.6,76,0.00,OVC,SKC,0.00,WeatherDisplay:10.37,2013-02-02 16:42:00,
2013-02-02 10:47:00,24.9,18.4,30.25,NNW,341,2.0,3.5,76,0.00,OVC,SKC,0.00,WeatherDisplay:10.37,2013-02-02 16:47:00,
2013-02-02 10:52:00,25.1,18.6,30.25,North,1,2.8,3.5,76,0.00,OVC,SKC,0.00,WeatherDisplay:10.37,2013-02-02 16:52:00,
2013-02-02 10:57:00,25.0,18.5,30.26,NNE,17,5.0,8.1,76,0.00,OVC,SKC,0.00,WeatherDisplay:10.37,2013-02-02 16:57:00,
2013-02-02 11:02:00,25.0,18.5,30.26,NE,42,5.2,6.9,76,0.00,OVC,SKC,0.00,WeatherDisplay:10.37,2013-02-02 17:02:00,
2013-02-02 11:07:00,24.8,18.3,30.25,NNE,30,3.0,4.6,76,0.00,OVC,SKC,0.00,WeatherDisplay:10.37,2013-02-02 17:07:00,
2013-02-02 11:12:00,25.0,18.5,30.25,NE,39,3.1,4.6,76,0.00,OVC,SKC,0.00,WeatherDisplay:10.37,2013-02-02 17:12:00,
2013-02-02 11:17:00,25.2,19.0,30.26,NW,326,1.3,3.5,77,0.00,OVC,SKC,0.00,WeatherDisplay:10.37,2013-02-02 17:17:00,
2013-02-02 11:22:00,25.7,19.5,30.26,North,1,1.5,2.3,77,0.00,OVC,SKC,0.00,WeatherDisplay:10.37,2013-02-02 17:22:00,
2013-02-02 11:27:00,25.8,19.3,30.26,WNW,299,0.8,2.3,76,0.00,OVC,SKC,0.00,WeatherDisplay:10.37,2013-02-02 17:27:00,
2013-02-02 11:32:00,25.9,19.4,30.26,NW,310,1.0,2.3,76,0.00,OVC,SKC,0.00,WeatherDisplay:10.37,2013-02-02 17:32:00,
2013-02-02 11:37:00,25.8,19.3,30.25,West,278,0.7,1.1,76,0.00,OVC,SKC,0.00,WeatherDisplay:10.37,2013-02-02 17:37:00,
2013-02-02 11:42:00,26.0,19.5,30.26,North,357,2.8,4.0,76,0.00,OVC,SKC,0.00,WeatherDisplay:10.37,2013-02-02 17:42:00,
2013-02-02 11:47:00,26.0,19.5,30.25,NNE,15,1.5,3.5,76,0.00,OVC,SKC,0.00,WeatherDisplay:10.37,2013-02-02 17:47:00,
2013-02-02 11:52:00,26.1,19.6,30.25,North,356,1.6,2.3,76,0.00,OVC,SKC,0.00,WeatherDisplay:10.37,2013-02-02 17:52:00,
2013-02-02 11:57:00,26.2,19.7,30.25,NE,52,0.0,0.0,76,0.00,OVC,SKC,0.00,WeatherDisplay:10.37,2013-02-02 17:57:00,
2013-02-02 12:02:00,26.3,19.8,30.25,WNW,303,0.3,1.1,76,0.00,OVC,SKC,0.00,WeatherDisplay:10.37,2013-02-02 18:02:00,
2013-02-02 12:07:00,26.7,20.1,30.25,ESE,115,0.0,0.0,76,0.00,OVC,SKC,0.00,WeatherDisplay:10.37,2013-02-02 18:07:00,
2013-02-02 12:12:00,27.0,20.1,30.24,NNE,18,2.7,3.5,75,0.00,OVC,SKC,0.00,WeatherDisplay:10.37,2013-02-02 18:12:00,
2013-02-02 12:17:00,26.6,19.7,30.24,NE,36,2.0,3.5,75,0.00,OVC,SKC,0.00,WeatherDisplay:10.37,2013-02-02 18:17:00,
2013-02-02 12:22:00,26.6,20.1,30.24,NW,311,1.3,2.3,76,0.00,OVC,SKC,0.00,WeatherDisplay:10.37,2013-02-02 18:22:00,
2013-02-02 12:27:00,26.9,20.3,30.23,East,81,0.0,1.1,76,0.00,OVC,SKC,0.00,WeatherDisplay:10.37,2013-02-02 18:27:00,
2013-02-02 12:32:00,27.1,20.5,30.23,NE,56,1.1,2.3,76,0.00,OVC,SKC,0.00,WeatherDisplay:10.37,2013-02-02 18:32:00,
2013-02-02 12:37:00,26.7,19.8,30.23,ENE,59,0.6,1.1,75,0.00,OVC,SKC,0.00,WeatherDisplay:10.37,2013-02-02 18:37:00,
2013-02-02 12:42:00,26.6,20.1,30.23,ESE,111,1.3,4.0,76,0.00,OVC,SKC,0.00,WeatherDisplay:10.37,2013-02-02 18:42:00,
2013-02-02 12:47:00,26.8,20.2,30.21,SSE,152,2.0,2.3,76,0.00,OVC,SKC,0.00,WeatherDisplay:10.37,2013-02-02 18:47:00,
2013-02-02 12:52:00,27.4,20.8,30.21,South,187,0.4,1.1,76,0.00,OVC,SKC,0.00,WeatherDisplay:10.37,2013-02-02 18:52:00,
2013-02-02 12:57:00,27.6,21.0,30.21,ESE,118,0.3,3.5,76,0.00,OVC,SKC,0.00,WeatherDisplay:10.37,2013-02-02 18:57:00,
2013-02-02 13:02:00,28.1,21.2,30.21,SSW,208,0.9,2.3,75,0.00,OVC,SKC,0.00,WeatherDisplay:10.37,2013-02-02 19:02:00,
2013-02-02 13:07:00,28.2,21.0,30.20,South,191,3.0,5.8,74,0.00,OVC,SKC,0.00,WeatherDisplay:10.37,2013-02-02 19:07:00,
2013-02-02 13:12:00,28.4,21.2,30.20,SW,232,3.2,5.8,74,0.00,OVC,SKC,0.00,WeatherDisplay:10.37,2013-02-02 19:12:00,
2013-02-02 13:17:00,28.6,21.7,30.19,SE,127,3.2,4.6,75,0.00,OVC,SKC,0.00,WeatherDisplay:10.37,2013-02-02 19:17:00,
2013-02-02 13:22:00,28.9,22.0,30.19,SW,228,1.9,4.0,75,0.00,OVC,SKC,0.00,WeatherDisplay:10.37,2013-02-02 19:22:00,
2013-02-02 13:27:00,29.3,22.4,30.19,SSE,152,2.2,4.0,75,0.00,OVC,SKC,0.00,WeatherDisplay:10.37,2013-02-02 19:27:00,
2013-02-02 13:32:00,29.6,22.3,30.19,South,190,4.0,6.9,74,0.00,OVC,SKC,0.00,WeatherDisplay:10.37,2013-02-02 19:32:00,
2013-02-02 13:37:00,29.8,22.5,30.19,SW,234,3.6,3.6,74,0.00,OVC,SKC,0.00,WeatherDisplay:10.37,2013-02-02 19:37:00,
2013-02-02 13:42:00,30.1,22.8,30.20,SSE,152,2.2,3.5,74,0.00,OVC,SKC,0.00,WeatherDisplay:10.37,2013-02-02 19:42:00,
2013-02-02 13:47:00,29.9,22.3,30.20,South,186,3.9,5.0,73,0.00,OVC,SKC,0.00,WeatherDisplay:10.37,2013-02-02 19:47:00,
2013-02-02 13:52:00,29.7,22.4,30.20,South,179,4.8,6.9,74,0.00,OVC,SKC,0.00,WeatherDisplay:10.37,2013-02-02 19:52:00,
2013-02-02 13:57:00,29.7,22.4,30.19,SSW,197,4.5,6.9,74,0.00,OVC,SKC,0.00,WeatherDisplay:10.37,2013-02-02 19:57:00,
2013-02-02 14:02:00,29.5,22.6,30.19,SSW,201,4.4,5.8,75,0.00,OVC,SKC,0.00,WeatherDisplay:10.37,2013-02-02 20:02:00,
2013-02-02 14:07:00,29.5,22.9,30.19,SSW,210,3.5,4.6,76,0.00,OVC,SKC,0.00,WeatherDisplay:10.37,2013-02-02 20:07:00,
2013-02-02 14:13:00,29.5,23.2,30.19,SW,222,1.5,2.3,77,0.00,OVC,SKC,0.00,WeatherDisplay:10.37,2013-02-02 20:13:00,
2013-02-02 14:18:00,29.7,23.4,30.19,SSW,195,4.5,5.8,77,0.00,OVC,SKC,0.00,WeatherDisplay:10.37,2013-02-02 20:18:00,
2013-02-02 14:23:00,29.7,23.7,30.18,SSW,204,3.9,4.0,78,0.00,OVC,SKC,0.00,WeatherDisplay:10.37,2013-02-02 20:23:00,
2013-02-02 14:28:00,30.0,24.0,30.18,South,188,4.0,6.9,78,0.00,OVC,SKC,0.00,WeatherDisplay:10.37,2013-02-02 20:28:00,
2013-02-02 14:33:00,30.1,24.1,30.18,SW,214,5.7,6.9,78,0.00,OVC,SKC,0.00,WeatherDisplay:10.37,2013-02-02 20:33:00,
2013-02-02 14:38:00,30.0,24.0,30.17,SSE,165,4.9,6.9,78,0.00,OVC,SKC,0.00,WeatherDisplay:10.37,2013-02-02 20:38:00,
2013-02-02 14:43:00,30.2,24.5,30.17,South,188,2.5,4.6,79,0.00,OVC,SKC,0.00,WeatherDisplay:10.37,2013-02-02 20:43:00,
2013-02-02 14:48:00,30.3,24.3,30.17,SSW,195,1.8,4.6,78,0.00,OVC,SKC,0.00,WeatherDisplay:10.37,2013-02-02 20:48:00,
2013-02-02 14:53:00,30.4,24.7,30.16,SSE,165,3.0,5.0,79,0.00,OVC,SKC,0.00,WeatherDisplay:10.37,2013-02-02 20:53:00,
2013-02-02 14:58:00,30.9,25.2,30.16,SSE,152,1.4,2.3,79,0.00,OVC,SKC,0.00,WeatherDisplay:10.37,2013-02-02 20:58:00,
2013-02-02 15:03:00,31.3,25.2,30.16,SE,129,3.2,5.8,78,0.00,OVC,SKC,0.00,WeatherDisplay:10.37,2013-02-02 21:03:00,
2013-02-02 15:08:00,31.3,24.9,30.16,SSW,197,5.8,8.1,77,0.00,OVC,SKC,0.00,WeatherDisplay:10.37,2013-02-02 21:08:00,
2013-02-02 15:13:00,31.2,24.8,30.16,SSE,151,4.6,6.0,77,0.00,OVC,SKC,0.00,WeatherDisplay:10.37,2013-02-02 21:13:00,
2013-02-02 15:18:00,31.2,25.1,30.15,SE,136,6.1,6.1,78,0.00,OVC,SKC,0.00,WeatherDisplay:10.37,2013-02-02 21:18:00,
2013-02-02 15:23:00,31.3,25.2,30.15,South,170,4.1,5.8,78,0.00,BKN,SKC,0.00,WeatherDisplay:10.37,2013-02-02 21:23:00,
2013-02-02 15:28:00,31.3,25.2,30.15,SSE,150,5.6,7.0,78,0.00,BKN,SKC,0.00,WeatherDisplay:10.37,2013-02-02 21:28:00,
2013-02-02 15:33:00,31.3,25.5,30.14,SE,143,3.2,8.1,79,0.00,BKN,SKC,0.00,WeatherDisplay:10.37,2013-02-02 21:33:00,
2013-02-02 15:38:00,31.5,25.7,30.14,South,175,5.5,8.1,79,0.00,BKN,SKC,0.00,WeatherDisplay:10.37,2013-02-02 21:38:00,
2013-02-02 15:43:00,32.0,25.9,30.13,SSE,156,3.5,5.0,78,0.00,SCT,SKC,0.00,WeatherDisplay:10.37,2013-02-02 21:43:00,
2013-02-02 15:48:00,32.5,26.4,30.13,SSE,166,4.4,6.0,78,0.00,SCT,SKC,0.00,WeatherDisplay:10.37,2013-02-02 21:48:00,
2013-02-02 15:53:00,32.7,26.6,30.12,SSE,156,3.8,5.8,78,0.00,SCT,SKC,0.00,WeatherDisplay:10.37,2013-02-02 21:53:00,
2013-02-02 15:58:00,33.2,27.1,30.12,SSW,208,3.1,5.0,78,0.00,SCT,SKC,0.00,WeatherDisplay:10.37,2013-02-02 21:58:00,
2013-02-02 16:03:00,33.6,27.5,30.11,SSW,210,5.6,6.9,78,0.00,SCT,SKC,0.00,WeatherDisplay:10.37,2013-02-02 22:03:00,
2013-02-02 16:08:00,33.6,27.5,30.11,South,170,3.0,4.6,78,0.00,SCT,SKC,0.00,WeatherDisplay:10.37,2013-02-02 22:08:00,
2013-02-02 16:13:00,33.6,27.5,30.11,SW,214,3.7,6.0,78,0.00,SCT,SKC,0.00,WeatherDisplay:10.37,2013-02-02 22:13:00,
2013-02-02 16:18:00,33.7,27.6,30.11,South,179,5.2,8.0,78,0.00,SCT,SKC,0.00,WeatherDisplay:10.37,2013-02-02 22:18:00,
2013-02-02 16:23:00,33.5,27.7,30.11,SSE,155,2.5,4.6,79,0.00,CLR,SKC,0.00,WeatherDisplay:10.37,2013-02-02 22:23:00,
2013-02-02 16:28:00,33.2,27.4,30.11,South,187,3.5,6.9,79,0.00,CLR,SKC,0.00,WeatherDisplay:10.37,2013-02-02 22:28:00,
2013-02-02 16:33:00,33.1,27.6,30.11,SSE,159,2.3,3.5,80,0.00,CLR,SKC,0.00,WeatherDisplay:10.37,2013-02-02 22:33:00,
2013-02-02 16:38:00,33.2,27.7,30.10,SSW,200,4.3,5.8,80,0.00,CLR,SKC,0.00,WeatherDisplay:10.37,2013-02-02 22:38:00,
2013-02-02 16:43:00,33.3,27.5,30.10,SSW,203,5.0,6.9,79,0.00,CLR,SKC,0.00,WeatherDisplay:10.37,2013-02-02 22:43:00,
2013-02-02 16:48:00,33.1,27.3,30.11,SE,145,2.7,4.0,79,0.00,CLR,SKC,0.00,WeatherDisplay:10.37,2013-02-02 22:48:00,
2013-02-02 16:53:00,33.0,27.5,30.10,South,170,3.2,4.6,80,0.00,CLR,SKC,0.00,WeatherDisplay:10.37,2013-02-02 22:53:00,
2013-02-02 16:58:00,32.9,27.4,30.10,SSE,150,1.6,4.0,80,0.00,CLR,SKC,0.00,WeatherDisplay:10.37,2013-02-02 22:58:00,
2013-02-02 17:03:00,32.8,27.3,30.10,SSE,153,4.0,4.6,80,0.00,CLR,SKC,0.00,WeatherDisplay:10.37,2013-02-02 23:03:00,
2013-02-02 17:08:00,32.7,27.5,30.11,ESE,122,1.8,2.3,81,0.00,CLR,SKC,0.00,WeatherDisplay:10.37,2013-02-02 23:08:00,
2013-02-02 17:13:00,32.6,27.4,30.11,SSW,195,2.1,3.5,81,0.00,CLR,SKC,0.00,WeatherDisplay:10.37,2013-02-02 23:13:00,
2013-02-02 17:18:00,32.7,27.5,30.11,SSE,155,1.7,2.3,81,0.00,CLR,SKC,0.00,WeatherDisplay:10.37,2013-02-02 23:18:00,
2013-02-02 17:23:00,32.6,27.4,30.10,SSW,199,2.8,3.5,81,0.00,BKN,SKC,0.00,WeatherDisplay:10.37,2013-02-02 23:23:00,
2013-02-02 17:28:00,32.6,27.7,30.10,SSE,152,2.3,3.5,82,0.00,BKN,SKC,0.00,WeatherDisplay:10.37,2013-02-02 23:28:00,
2013-02-02 17:33:00,32.6,27.7,30.11,SSW,196,2.3,3.5,82,0.00,BKN,SKC,0.00,WeatherDisplay:10.37,2013-02-02 23:33:00,
2013-02-02 17:38:00,32.5,27.6,30.10,SE,143,1.4,3.5,82,0.00,BKN,SKC,0.00,WeatherDisplay:10.37,2013-02-02 23:38:00,
2013-02-02 17:43:00,32.5,27.6,30.10,South,172,3.6,4.6,82,0.00,OVC,SKC,0.00,WeatherDisplay:10.37,2013-02-02 23:43:00,
2013-02-02 17:48:00,32.4,27.5,30.09,South,187,2.9,4.6,82,0.00,OVC,SKC,0.00,WeatherDisplay:10.37,2013-02-02 23:48:00,
2013-02-02 17:53:00,32.4,27.8,30.09,SSE,166,2.4,3.5,83,0.00,OVC,SKC,0.00,WeatherDisplay:10.37,2013-02-02 23:53:00,
2013-02-02 17:58:00,32.3,27.7,30.09,South,176,1.6,3.5,83,0.00,OVC,SKC,0.00,WeatherDisplay:10.37,2013-02-02 23:58:00,
2013-02-02 18:03:00,32.3,27.7,30.10,SW,218,0.9,2.3,83,0.00,BKN,SKC,0.00,WeatherDisplay:10.37,2013-02-03 00:03:00,
2013-02-02 18:08:00,32.3,28.0,30.10,SSE,155,1.8,3.0,84,0.00,BKN,SKC,0.00,WeatherDisplay:10.37,2013-02-03 00:08:00,
2013-02-02 18:13:00,32.3,28.0,30.11,WNW,300,1.0,2.3,84,0.00,BKN,SKC,0.00,WeatherDisplay:10.37,2013-02-03 00:13:00,
2013-02-02 18:18:00,32.4,28.1,30.11,ESE,118,0.5,2.3,84,0.00,BKN,SKC,0.00,WeatherDisplay:10.37,2013-02-03 00:18:00,
2013-02-02 18:23:00,32.4,28.1,30.12,SSW,195,2.6,3.5,84,0.00,-SN,SKC,0.00,WeatherDisplay:10.37,2013-02-03 00:23:00,
2013-02-02 18:28:00,32.4,28.1,30.12,SW,223,1.1,2.3,84,0.00,-SN,SKC,0.00,WeatherDisplay:10.37,2013-02-03 00:28:00,
2013-02-02 18:33:00,32.4,28.4,30.13,NNW,330,1.0,3.5,85,0.00,-SN,SKC,0.00,WeatherDisplay:10.37,2013-02-03 00:33:00,
2013-02-02 18:38:00,32.4,28.7,30.13,SSW,200,0.0,0.0,86,0.00,-SN,SKC,0.00,WeatherDisplay:10.37,2013-02-03 00:38:00,
2013-02-02 18:43:00,32.5,29.1,30.13,South,191,0.0,0.0,87,0.00,OVC,SKC,0.00,WeatherDisplay:10.37,2013-02-03 00:43:00,
2013-02-02 18:48:00,32.4,29.0,30.12,SSE,164,0.8,2.3,87,0.00,OVC,SKC,0.00,WeatherDisplay:10.37,2013-02-03 00:48:00,
2013-02-02 18:53:00,32.3,28.9,30.12,SSE,166,0.0,0.0,87,0.00,OVC,SKC,0.00,WeatherDisplay:10.37,2013-02-03 00:53:00,
2013-02-02 18:58:00,32.2,29.0,30.12,SSW,212,1.5,2.3,88,0.00,OVC,SKC,0.00,WeatherDisplay:10.37,2013-02-03 00:58:00,
2013-02-02 19:03:00,32.1,28.9,30.12,SSW,210,1.0,1.1,88,0.00,OVC,SKC,0.00,WeatherDisplay:10.37,2013-02-03 01:03:00,
2013-02-02 19:08:00,32.0,28.8,30.12,SW,219,1.1,2.3,88,0.00,OVC,SKC,0.00,WeatherDisplay:10.37,2013-02-03 01:08:00,
2013-02-02 19:13:00,32.0,28.8,30.12,SW,221,0.0,0.0,88,0.00,OVC,SKC,0.00,WeatherDisplay:10.37,2013-02-03 01:13:00,
2013-02-02 19:18:00,31.9,28.8,30.13,West,281,0.2,1.1,88,0.00,OVC,SKC,0.00,WeatherDisplay:10.37,2013-02-03 01:18:00,
2013-02-02 19:23:00,31.8,28.7,30.12,WSW,256,0.2,1.1,88,0.00,OVC,SKC,0.00,WeatherDisplay:10.37,2013-02-03 01:23:00,
2013-02-02 19:28:00,31.7,28.8,30.13,SW,226,0.1,1.1,89,0.00,OVC,SKC,0.00,WeatherDisplay:10.37,2013-02-03 01:28:00,
2013-02-02 19:33:00,31.5,28.6,30.13,North,11,0.0,1.1,89,0.00,OVC,SKC,0.00,WeatherDisplay:10.37,2013-02-03 01:33:00,
2013-02-02 19:38:00,31.2,28.3,30.13,North,1,0.5,1.1,89,0.00,OVC,SKC,0.00,WeatherDisplay:10.37,2013-02-03 01:38:00,
2013-02-02 19:44:00,31.4,29.1,30.13,West,274,0.6,2.3,91,0.00,SCT,SKC,0.00,WeatherDisplay:10.37,2013-02-03 01:44:00,
2013-02-02 19:49:00,31.8,29.2,30.13,WNW,285,0.9,2.3,90,0.00,SCT,SKC,0.00,WeatherDisplay:10.37,2013-02-03 01:49:00,
2013-02-02 19:54:00,32.2,29.6,30.13,West,271,1.5,3.5,90,0.00,SCT,SKC,0.00,WeatherDisplay:10.37,2013-02-03 01:54:00,
2013-02-02 19:59:00,32.9,30.0,30.12,WSW,256,1.9,3.5,89,0.00,SCT,SKC,0.00,WeatherDisplay:10.37,2013-02-03 01:59:00,
2013-02-02 20:04:00,33.3,30.1,30.12,WNW,298,4.5,4.6,88,0.00,SCT,SKC,0.00,WeatherDisplay:10.37,2013-02-03 02:04:00,
2013-02-02 20:09:00,33.9,30.4,30.12,WNW,293,3.9,5.8,87,0.00,SCT,SKC,0.00,WeatherDisplay:10.37,2013-02-03 02:09:00,
2013-02-02 20:14:00,34.2,30.4,30.12,WNW,293,3.5,4.6,86,0.00,SCT,SKC,0.00,WeatherDisplay:10.37,2013-02-03 02:14:00,
2013-02-02 20:19:00,34.3,30.3,30.13,West,267,3.9,4.6,85,0.00,SCT,SKC,0.00,WeatherDisplay:10.37,2013-02-03 02:19:00,
2013-02-02 20:24:00,34.4,30.4,30.13,West,277,4.6,5.8,85,0.00,SCT,SKC,0.00,WeatherDisplay:10.37,2013-02-03 02:24:00,
2013-02-02 20:29:00,34.7,30.4,30.13,WNW,300,3.6,10.4,84,0.00,SCT,SKC,0.00,WeatherDisplay:10.37,2013-02-03 02:29:00,
2013-02-02 20:34:00,35.2,30.6,30.12,West,281,4.4,6.9,83,0.00,SCT,SKC,0.00,WeatherDisplay:10.37,2013-02-03 02:34:00,
2013-02-02 20:39:00,35.6,30.6,30.12,NW,309,4.3,4.6,82,0.00,SCT,SKC,0.00,WeatherDisplay:10.37,2013-02-03 02:39:00,
2013-02-02 20:44:00,35.8,30.5,30.12,WNW,303,4.3,4.6,81,0.00,SCT,SKC,0.00,WeatherDisplay:10.37,2013-02-03 02:44:00,
2013-02-02 20:49:00,36.1,30.8,30.12,WNW,293,3.9,5.8,81,0.00,SCT,SKC,0.00,WeatherDisplay:10.37,2013-02-03 02:49:00,
2013-02-02 20:54:00,36.3,30.7,30.11,NW,304,5.2,9.2,80,0.00,SCT,SKC,0.00,WeatherDisplay:10.37,2013-02-03 02:54:00,
2013-02-02 20:59:00,36.8,30.9,30.11,NW,309,4.6,6.9,79,0.00,SCT,SKC,0.00,WeatherDisplay:10.37,2013-02-03 02:59:00,
2013-02-02 21:04:00,37.3,30.7,30.11,WNW,300,4.3,9.2,77,0.00,SCT,SKC,0.00,WeatherDisplay:10.37,2013-02-03 03:04:00,
2013-02-02 21:09:00,37.8,30.9,30.11,NW,312,4.2,8.1,76,0.00,SCT,SKC,0.00,WeatherDisplay:10.37,2013-02-03 03:09:00,
2013-02-02 21:14:00,38.0,30.8,30.11,WNW,300,5.4,5.8,75,0.00,SCT,SKC,0.00,WeatherDisplay:10.37,2013-02-03 03:14:00,
2013-02-02 21:19:00,38.4,31.2,30.11,NW,316,5.2,9.2,75,0.00,SCT,SKC,0.00,WeatherDisplay:10.37,2013-02-03 03:19:00,
2013-02-02 21:24:00,38.6,31.0,30.11,WNW,302,4.1,9.2,74,0.00,CLR,SKC,0.00,WeatherDisplay:10.37,2013-02-03 03:24:00,
2013-02-02 21:29:00,38.7,30.8,30.11,WNW,291,4.4,6.9,73,0.00,CLR,SKC,0.00,WeatherDisplay:10.37,2013-02-03 03:29:00,
2013-02-02 21:34:00,38.7,30.8,30.12,WNW,282,3.3,9.2,73,0.00,CLR,SKC,0.00,WeatherDisplay:10.37,2013-02-03 03:34:00,
2013-02-02 21:39:00,38.6,31.0,30.12,NW,311,3.2,11.5,74,0.00,CLR,SKC,0.00,WeatherDisplay:10.37,2013-02-03 03:39:00,
2013-02-02 21:44:00,38.6,31.0,30.12,WNW,298,4.7,7.0,74,0.00,CLR,SKC,0.00,WeatherDisplay:10.37,2013-02-03 03:44:00,
2013-02-02 21:49:00,38.5,30.9,30.12,NW,319,5.3,10.4,74,0.00,CLR,SKC,0.00,WeatherDisplay:10.37,2013-02-03 03:49:00,
2013-02-02 21:54:00,38.3,30.7,30.12,WNW,301,4.3,11.5,74,0.00,CLR,SKC,0.00,WeatherDisplay:10.37,2013-02-03 03:54:00,
2013-02-02 21:59:00,38.2,30.6,30.13,West,276,5.2,11.5,74,0.00,CLR,SKC,0.00,WeatherDisplay:10.37,2013-02-03 03:59:00,
2013-02-02 22:04:00,38.0,30.4,30.13,NW,309,5.1,5.1,74,0.00,CLR,SKC,0.00,WeatherDisplay:10.37,2013-02-03 04:04:00,
2013-02-02 22:09:00,37.8,30.3,30.13,West,278,3.5,9.2,74,0.00,CLR,SKC,0.00,WeatherDisplay:10.37,2013-02-03 04:09:00,
2013-02-02 22:14:00,37.7,30.5,30.13,NW,320,4.3,5.8,75,0.00,CLR,SKC,0.00,WeatherDisplay:10.37,2013-02-03 04:14:00,
2013-02-02 22:19:00,37.5,30.3,30.13,WNW,297,4.7,6.0,75,0.00,CLR,SKC,0.00,WeatherDisplay:10.37,2013-02-03 04:19:00,
2013-02-02 22:24:00,37.3,30.1,30.13,NW,317,2.3,3.5,75,0.00,CLR,SKC,0.00,WeatherDisplay:10.37,2013-02-03 04:24:00,
2013-02-02 22:29:00,37.2,30.0,30.13,West,280,4.0,7.0,75,0.00,CLR,SKC,0.00,WeatherDisplay:10.37,2013-02-03 04:29:00,
2013-02-02 22:34:00,37.1,29.9,30.14,NW,312,3.4,5.8,75,0.00,CLR,SKC,0.00,WeatherDisplay:10.37,2013-02-03 04:34:00,
2013-02-02 22:39:00,37.0,30.1,30.13,NW,311,4.1,4.6,76,0.00,CLR,SKC,0.00,WeatherDisplay:10.37,2013-02-03 04:39:00,
2013-02-02 22:44:00,37.1,29.9,30.14,West,264,4.1,6.9,75,0.00,SCT,SKC,0.00,WeatherDisplay:10.37,2013-02-03 04:44:00,
2013-02-02 22:49:00,37.2,30.0,30.14,WNW,298,2.8,3.5,75,0.00,SCT,SKC,0.00,WeatherDisplay:10.37,2013-02-03 04:49:00,
2013-02-02 22:54:00,37.3,30.1,30.14,NW,308,3.7,5.0,75,0.00,SCT,SKC,0.00,WeatherDisplay:10.37,2013-02-03 04:54:00,
2013-02-02 22:59:00,37.3,30.1,30.14,WNW,301,3.0,3.5,75,0.00,SCT,SKC,0.00,WeatherDisplay:10.37,2013-02-03 04:59:00,
2013-02-02 23:00:00,37.3,30.1,30.14,NW,304,3.0,9.0,75,0.00,SCT,SKC,0.00,WeatherDisplay:10.37,2013-02-03 05:00:00,
2013-02-02 23:03:00,37.2,30.0,30.14,WNW,303,3.0,4.0,75,0.00,OVC,SKC,0.00,WeatherDisplay:10.37,2013-02-03 05:03:00,
2013-02-02 23:08:00,37.1,29.9,30.15,WNW,302,3.2,5.8,75,0.00,OVC,SKC,0.00,WeatherDisplay:10.37,2013-02-03 05:08:00,
2013-02-02 23:13:00,37.0,29.8,30.15,WNW,302,4.0,5.8,75,0.00,OVC,SKC,0.00,WeatherDisplay:10.37,2013-02-03 05:13:00,
2013-02-02 23:18:00,36.9,30.0,30.15,NW,314,3.4,3.5,76,0.00,OVC,SKC,0.00,WeatherDisplay:10.37,2013-02-03 05:18:00,
2013-02-02 23:23:00,36.7,29.8,30.16,NW,320,4.2,5.8,76,0.00,OVC,SKC,0.00,WeatherDisplay:10.37,2013-02-03 05:23:00,
2013-02-02 23:28:00,36.6,30.1,30.16,NW,312,3.7,6.9,77,0.00,OVC,SKC,0.00,WeatherDisplay:10.37,2013-02-03 05:28:00,
2013-02-02 23:33:00,36.5,30.0,30.17,NW,314,3.7,6.0,77,0.00,OVC,SKC,0.00,WeatherDisplay:10.37,2013-02-03 05:33:00,
2013-02-02 23:38:00,36.4,29.9,30.17,NW,307,4.1,7.0,77,0.00,OVC,SKC,0.00,WeatherDisplay:10.37,2013-02-03 05:38:00,
2013-02-02 23:43:00,36.4,29.9,30.17,NNW,330,8.4,11.5,77,0.00,BKN,SKC,0.00,WeatherDisplay:10.37,2013-02-03 05:43:00,
2013-02-02 23:48:00,36.4,29.6,30.17,WNW,302,6.6,11.5,76,0.00,BKN,SKC,0.00,WeatherDisplay:10.37,2013-02-03 05:48:00,
2013-02-02 23:53:00,36.3,29.5,30.18,NNW,336,7.2,11.5,76,0.00,BKN,SKC,0.00,WeatherDisplay:10.37,2013-02-03 05:53:00,
2013-02-02 23:58:00,36.2,29.4,30.18,NW,317,6.2,8.1,76,0.00,BKN,SKC,0.00,WeatherDisplay:10.37,2013-02-03 05:58:00,